Nassau (NAS/MYNN)

Information

Location
Nassau, Bahamas
Local Time
15:55 / 3:55 pm
GMT Time
19:55 / 7:55 pm
Gates
15
No FAA reported delays
METAR MYNN 281900Z 08013KT 060V120 BKN020 30/23 A3009 RMK PKWND 20KT
TAF MYNN 281615Z 2818/2918 09012KT 9999 SCT020 BECMG 2906/2908 11015G25KT